AEST,Max TemperatureF,Mean TemperatureF,Min TemperatureF,Max Dew PointF,MeanDew PointF,Min DewpointF,Max Humidity, Mean Humidity, Min Humidity, Max Sea Level PressureIn, Mean Sea Level PressureIn, Min Sea Level PressureIn, Max VisibilityMiles, Mean VisibilityMiles, Min VisibilityMiles, Max Wind SpeedMPH, Mean Wind SpeedMPH, Max Gust SpeedMPH,PrecipitationIn, CloudCover, Events, WindDirDegrees
2014-3-1,83,76,70,76,72,67,95,85,61,29.86,29.82,29.77,12,6,1,25,8,,0.20,5,Rain,161
2014-3-2,88,80,73,73,70,66,94,71,42,29.88,29.82,29.74,19,7,6,18,10,,0.31,4,Rain,155
2014-3-3,84,79,74,76,73,71,94,84,63,29.92,29.85,29.80,19,6,2,18,10,,0.16,6,Rain,165
2014-3-4,87,81,75,75,72,70,94,75,53,29.93,29.87,29.83,19,7,4,25,17,34,0.12,5,Rain,157
2014-3-5,84,79,74,75,72,70,94,81,62,29.91,29.86,29.80,19,6,2,23,14,,0.20,5,Rain,162
2014-3-6,86,80,73,72,68,64,94,67,40,29.88,29.83,29.80,19,7,3,28,14,36,0.01,4,Rain,157
2014-3-7,87,80,74,73,70,67,89,71,52,29.87,29.82,29.77,16,6,6,24,13,34,0.01,6,Rain,162
2014-3-8,82,78,75,74,70,68,90,76,61,29.84,29.78,29.71,12,6,4,22,14,31,0.01,6,Rain,170
2014-3-9,89,82,75,75,70,66,83,66,45,29.82,29.75,29.68,19,7,6,16,11,,0.00,6,,174
2014-3-10,86,81,76,72,70,68,83,67,47,29.89,29.80,29.74,19,7,6,18,10,,0.00,6,,144
2014-3-11,80,78,75,75,71,68,94,81,64,29.89,29.83,29.77,19,6,2,22,12,30,1.69,6,Rain,161
2014-3-12,84,78,71,75,73,72,100,91,68,29.93,29.86,29.80,16,4,2,21,13,25,3.03,6,Rain,159
2014-3-13,86,79,72,72,69,64,94,72,46,29.94,29.88,29.83,19,7,6,16,12,,0.01,4,Rain,153
2014-3-14,84,79,74,73,69,66,83,72,53,29.95,29.89,29.83,12,6,6,20,10,,0.00,5,Rain,162
2014-3-15,86,78,70,70,67,64,88,69,43,29.97,29.90,29.83,19,7,6,16,10,,0.00,2,,145
2014-3-16,86,76,66,70,68,65,97,75,47,29.98,29.92,29.86,19,7,6,14,6,,0.00,1,,147
2014-3-17,87,78,68,72,69,66,100,74,47,30.00,29.94,29.89,19,6,6,14,6,,0.00,1,,155
2014-3-18,87,80,72,72,69,66,88,69,43,30.01,29.95,29.89,19,7,6,22,11,,0.00,1,,148
2014-3-19,86,80,75,76,71,68,100,76,51,29.98,29.89,29.83,19,7,3,22,14,31,1.06,5,Rain,163
2014-3-20,80,78,75,77,75,73,100,91,83,29.87,29.81,29.74,16,5,2,24,15,34,3.23,6,Rain-Thunderstorm,163
2014-3-21,84,79,74,77,74,72,100,90,72,29.88,29.82,29.77,9,6,2,17,11,,0.43,6,Rain,170
2014-3-22,84,79,74,79,74,72,100,89,79,29.91,29.83,29.77,6,5,2,16,11,24,1.57,6,Rain,169
2014-3-23,86,80,74,75,73,71,95,83,60,29.93,29.87,29.83,19,7,3,16,12,,0.12,6,Rain,161
2014-3-24,84,78,73,75,73,70,96,88,66,29.90,29.84,29.80,16,6,2,26,11,32,0.63,6,Rain,163
2014-3-25,82,78,73,75,73,71,100,88,66,29.89,29.83,29.77,19,7,2,13,6,,0.08,6,Rain,161
2014-3-26,84,78,73,75,74,72,100,86,68,29.90,29.83,29.77,19,7,4,12,8,,0.01,5,Rain,110
2014-3-27,84,79,74,77,75,73,100,87,68,29.92,29.86,29.80,19,7,1,10,7,,0.00,4,Rain,119
2014-3-28,86,80,75,77,76,73,100,86,66,29.96,29.90,29.86,19,6,6,14,4,,0.00,3,Rain,118
2014-3-29,87,81,75,79,75,72,100,84,55,29.97,29.92,29.89,19,7,6,16,5,,0.00,3,,131
2014-3-30,88,82,76,75,73,71,89,73,53,29.98,29.92,29.86,19,7,6,17,10,,0.00,3,,156
2014-3-31,87,81,75,75,72,68,100,73,46,29.95,29.91,29.86,19,7,4,21,12,,0.35,2,Rain,149